This is the latest recevied weather packets stored in our database for station/object WT9M-8. If no packets are shown the sender has not sent any weather packets the latest 10 day(s).
| Time | Temp. | Humidity | Pressure | Rain* | Wind** | Luminosity | Snow |
|---|---|---|---|---|---|---|---|
| 1777665017 | 16.11° C | 39% | 1016.4 hPa | 0 mm | - | 710 W/m² | - |
| 1777663828 | 15.56° C | 39% | 1016.4 hPa | 0 mm | - | 685 W/m² | - |
| 1777661429 | 15° C | 41% | 1016.3 hPa | 0 mm | - | 471 W/m² | - |
| 1777657838 | 15.56° C | 41% | 1016.4 hPa | 0 mm | - | 229 W/m² | - |
| 1777654231 | 14.44° C | 43% | 1016.5 hPa | 0 mm | - | 252 W/m² | - |
| 1777652434 | 13.89° C | 47% | 1016.6 hPa | 0 mm | - | 232 W/m² | - |
| 1777647635 | 9.44° C | 54% | 1016.9 hPa | 0 mm | - | 192 W/m² | - |
| 1777647029 | 10° C | 55% | 1016.9 hPa | 0 mm | - | 113 W/m² | - |
| 1777643421 | 9.44° C | 73% | 1016.8 hPa | 0 mm | - | 177 W/m² | - |
| 1777639835 | 2.22° C | 85% | 1017 hPa | 0 mm | - | 125 W/m² | - |
| 1777638646 | 0.56° C | 85% | 1016.9 hPa | 0 mm | - | 30 W/m² | - |
| 1777638022 | 0° C | 86% | 1016.9 hPa | 0 mm | - | 46 W/m² | - |
| 1777634438 | -3.33° C | 85% | 1016.5 hPa | 0 mm | - | 3 W/m² | - |
| 1777633831 | -3.33° C | 85% | 1016.4 hPa | 0 mm | - | 1 W/m² | - |
| 1777633227 | -3.33° C | 85% | 1016.4 hPa | 0 mm | - | 0 W/m² | - |
| 1777629033 | -3.33° C | 84% | 1016.3 hPa | 0 mm | - | 0 W/m² | - |
| 1777627825 | -3.33° C | 84% | 1016.2 hPa | 0 mm | - | 0 W/m² | - |
| 1777623655 | -3.33° C | 81% | 1016 hPa | 0 mm | - | 0 W/m² | - |
| 1777616421 | -1.67° C | 79% | 1016 hPa | 0 mm | - | 0 W/m² | - |
| 1777606847 | 3.89° C | 62% | 1015.8 hPa | 0 mm | - | 0 W/m² | - |
| 1777606223 | 4.44° C | 60% | 1015.8 hPa | 0 mm | - | 0 W/m² | - |
| 1777605638 | 5° C | 58% | 1015.8 hPa | 0 mm | - | 0 W/m² | - |
| 1777603241 | 6.67° C | 56% | 1015.6 hPa | 0 mm | - | 0 W/m² | - |
| 1777600819 | 7.78° C | 55% | 1014.8 hPa | 0 mm | - | 0 W/m² | - |
| 1777597836 | 8.33° C | 53% | 1014.1 hPa | 0 mm | - | 0 W/m² | - |
* Rain latest hour (hover to see other rain measurements)
** Current wind speed in m/s (hover to see current wind gust speed)